Time;durP1;ratioP1;P1;durP2;ratioP2;P2;SDS_P1;SDS_P2;PMS_P1;PMS_P2;Temp;Humidity;BMP_temperature;BMP_pressure;BME280_temperature;BME280_humidity;BME280_pressure;Samples;Min_cycle;Max_cycle;Signal;HPM_P1;HPM_P2
2022/07/19 00:01:28;;;;;;;8.15;4.45;;;;;;;15.42;65.00;100767.21;2175139;81;21028;-74
2022/07/19 00:04:31;;;;;;;7.80;4.20;;;;;;;15.38;65.06;100765.93;2170512;81;21094;-74
2022/07/19 00:07:31;;;;;;;6.42;4.12;;;;;;;15.40;65.37;100768.75;2172068;82;21011;-74
2022/07/19 00:10:33;;;;;;;13.78;4.30;;;;;;;15.41;65.55;100766.90;2172465;82;21004;-73
2022/07/19 00:13:34;;;;;;;10.55;5.05;;;;;;;15.40;65.39;100762.55;2174469;81;21000;-73
2022/07/19 00:16:35;;;;;;;7.28;5.05;;;;;;;15.25;65.87;100772.71;2173875;81;21103;-73
2022/07/19 00:19:36;;;;;;;11.35;4.87;;;;;;;15.19;66.00;100771.28;2171476;81;21460;-73
2022/07/19 00:22:37;;;;;;;8.35;4.70;;;;;;;15.18;66.07;100771.79;2173928;81;21531;-74
2022/07/19 00:25:38;;;;;;;6.65;3.85;;;;;;;15.13;66.03;100760.80;2175646;82;21076;-75
2022/07/19 00:28:40;;;;;;;8.30;4.58;;;;;;;15.08;65.95;100769.86;2175290;81;21066;-73
2022/07/19 00:31:41;;;;;;;7.78;4.30;;;;;;;15.09;65.93;100770.20;2182462;81;20987;-73
2022/07/19 00:34:42;;;;;;;5.87;4.35;;;;;;;15.08;65.82;100765.86;2183806;80;21548;-73
2022/07/19 00:37:43;;;;;;;9.73;4.60;;;;;;;15.03;65.81;100772.24;2173002;81;20987;-73
2022/07/19 00:40:44;;;;;;;10.82;4.90;;;;;;;14.99;65.72;100770.95;2186975;80;21106;-73
2022/07/19 00:43:46;;;;;;;7.75;4.50;;;;;;;14.89;65.86;100763.67;2182725;81;20998;-74
2022/07/19 00:46:47;;;;;;;8.60;4.87;;;;;;;14.85;65.83;100771.73;2184310;80;21737;-73
2022/07/19 00:49:48;;;;;;;8.05;3.98;;;;;;;14.77;65.86;100769.44;2182246;81;21454;-73
2022/07/19 00:53:00;;;;;;;13.98;4.67;;;;;;;14.63;66.08;100778.22;2186939;81;21521;-74
2022/07/19 00:56:03;;;;;;;8.35;4.00;;;;;;;14.59;66.17;100772.92;2185788;80;21082;-73
2022/07/19 00:59:05;;;;;;;6.37;4.90;;;;;;;14.60;66.49;100772.41;2184143;80;20978;-73
2022/07/19 01:02:07;;;;;;;9.15;4.05;;;;;;;14.63;66.80;100774.21;2186182;81;21041;-72
2022/07/19 01:05:11;;;;;;;10.05;5.12;;;;;;;14.59;66.38;100775.59;2183079;80;21035;-73
2022/07/19 01:08:12;;;;;;;8.10;4.70;;;;;;;14.53;66.68;100770.96;2188316;81;21031;-73
2022/07/19 01:11:13;;;;;;;8.85;4.78;;;;;;;14.55;66.73;100772.93;2181248;81;21048;-73
2022/07/19 01:14:14;;;;;;;8.85;4.90;;;;;;;14.52;67.08;100783.97;2186924;80;21043;-73
2022/07/19 01:17:15;;;;;;;9.23;4.25;;;;;;;14.38;67.24;100773.50;2182795;80;20998;-73
2022/07/19 01:20:19;;;;;;;10.10;4.42;;;;;;;14.32;67.20;100779.03;2183664;81;21039;-72
2022/07/19 01:23:20;;;;;;;6.85;3.65;;;;;;;14.24;67.06;100779.58;2186789;80;21037;-73
2022/07/19 01:26:21;;;;;;;8.20;4.45;;;;;;;14.19;67.05;100781.46;2182258;81;22447;-74
2022/07/19 01:29:22;;;;;;;7.37;3.92;;;;;;;14.18;66.96;100782.95;2187948;80;21040;-73
2022/07/19 01:32:24;;;;;;;7.87;4.83;;;;;;;14.17;66.81;100774.12;2177913;80;21038;-74
2022/07/19 01:35:25;;;;;;;7.78;4.92;;;;;;;14.12;67.35;100773.30;2181999;80;21100;-73
2022/07/19 01:38:26;;;;;;;6.37;3.72;;;;;;;14.09;67.51;100766.98;2181704;80;21043;-73
2022/07/19 01:41:27;;;;;;;6.67;3.50;;;;;;;14.02;67.19;100769.17;2185996;80;21011;-73
2022/07/19 01:44:28;;;;;;;9.68;4.65;;;;;;;13.96;67.20;100768.53;2185035;80;21020;-73
2022/07/19 01:47:30;;;;;;;8.25;4.50;;;;;;;13.92;67.32;100778.73;2185650;80;21074;-73
2022/07/19 01:50:34;;;;;;;8.50;4.55;;;;;;;13.95;67.71;100778.89;2182243;80;21463;-73
2022/07/19 01:53:35;;;;;;;6.22;4.22;;;;;;;13.85;67.79;100781.27;2182186;80;21050;-73
2022/07/19 01:56:36;;;;;;;8.33;4.62;;;;;;;13.78;67.90;100773.60;2182426;80;21081;-73
2022/07/19 01:59:38;;;;;;;5.92;3.80;;;;;;;13.78;68.20;100770.11;2181871;80;21003;-73
2022/07/19 02:02:40;;;;;;;8.35;4.60;;;;;;;13.67;67.86;100779.30;2180635;80;21485;-73
2022/07/19 02:05:41;;;;;;;5.83;4.65;;;;;;;13.61;68.20;100778.66;2183856;80;21033;-73
2022/07/19 02:08:44;;;;;;;7.95;4.10;;;;;;;13.56;68.48;100771.66;2180968;80;20983;-72
2022/07/19 02:11:45;;;;;;;11.73;5.10;;;;;;;13.49;68.26;100768.00;2182148;80;21025;-73
2022/07/19 02:14:46;;;;;;;6.72;4.03;;;;;;;13.50;68.30;100759.84;2184413;80;21062;-74
2022/07/19 02:17:47;;;;;;;8.85;4.37;;;;;;;13.50;68.21;100759.84;2178011;80;21289;-73
2022/07/19 02:20:48;;;;;;;10.08;4.25;;;;;;;13.50;68.17;100763.02;2177162;80;21046;-73
2022/07/19 02:23:49;;;;;;;7.35;4.10;;;;;;;13.38;68.15;100761.22;2182832;80;20972;-72
2022/07/19 02:26:50;;;;;;;7.67;4.45;;;;;;;13.28;68.15;100761.38;2185016;80;21070;-73
2022/07/19 02:29:51;;;;;;;5.28;3.85;;;;;;;13.23;68.33;100759.20;2188032;80;21077;-73
2022/07/19 02:32:52;;;;;;;6.72;4.12;;;;;;;13.20;68.53;100761.36;2163249;80;21082;-74
2022/07/19 02:35:53;;;;;;;5.47;3.95;;;;;;;13.17;68.74;100760.36;2166111;82;21025;-73
2022/07/19 02:38:55;;;;;;;9.58;4.62;;;;;;;13.17;68.79;100765.69;2166330;82;20992;-74
2022/07/19 02:41:56;;;;;;;15.25;5.05;;;;;;;13.19;69.06;100769.03;2162693;81;21007;-73
2022/07/19 02:44:57;;;;;;;7.45;4.75;;;;;;;13.28;69.39;100767.22;2161031;82;21011;-73
2022/07/19 02:47:58;;;;;;;7.70;4.50;;;;;;;13.33;69.65;100769.70;2166348;82;21524;-74
2022/07/19 02:50:59;;;;;;;8.68;4.10;;;;;;;13.40;69.76;100776.05;2165020;82;20977;-73
2022/07/19 02:54:00;;;;;;;7.37;4.28;;;;;;;13.48;69.85;100769.02;2165213;82;21548;-75
2022/07/19 02:57:01;;;;;;;6.72;4.65;;;;;;;13.49;69.83;100774.19;2172077;81;21009;-73
2022/07/19 03:00:09;;;;;;;8.10;4.90;;;;;;;13.55;69.92;100776.17;2169971;81;21022;-72
2022/07/19 03:06:29;;;;;;;6.80;4.50;;;;;;;13.64;70.25;100770.31;2167566;82;21073;-75
2022/07/19 03:09:30;;;;;;;9.65;4.83;;;;;;;13.67;70.33;100768.64;2165948;81;20958;-72
2022/07/19 03:12:32;;;;;;;5.97;4.83;;;;;;;13.61;70.31;100771.48;2166902;82;21529;-73
2022/07/19 03:15:33;;;;;;;7.33;4.97;;;;;;;13.62;70.54;100772.31;2166375;82;21018;-72
2022/07/19 03:18:34;;;;;;;8.88;5.15;;;;;;;13.63;70.59;100768.66;2167594;81;21599;-72
2022/07/19 03:21:35;;;;;;;8.73;5.15;;;;;;;13.66;70.63;100768.31;2168464;81;21041;-72
2022/07/19 03:24:36;;;;;;;12.60;5.47;;;;;;;13.72;70.79;100770.30;2159936;80;20965;-73
2022/07/19 03:27:39;;;;;;;9.08;5.00;;;;;;;13.72;70.87;100774.80;2164397;82;21067;-76
2022/07/19 03:30:40;;;;;;;6.03;4.45;;;;;;;13.73;71.02;100774.61;2170688;82;21464;-73
2022/07/19 03:33:41;;;;;;;8.40;4.70;;;;;;;13.75;71.11;100777.95;2201715;80;21684;-73
2022/07/19 03:36:42;;;;;;;10.60;5.20;;;;;;;13.75;71.18;100776.61;2201953;80;21571;-73
2022/07/19 03:39:44;;;;;;;8.25;4.85;;;;;;;13.80;71.33;100770.27;2199590;80;21497;-72
2022/07/19 03:42:45;;;;;;;8.28;5.28;;;;;;;13.84;71.45;100774.25;2200777;80;21036;-72
2022/07/19 03:45:46;;;;;;;8.75;5.10;;;;;;;13.89;71.38;100775.08;2201179;80;21004;-73
2022/07/19 03:48:49;;;;;;;8.28;5.45;;;;;;;13.96;71.47;100770.69;2204334;80;21046;-74
2022/07/19 03:51:52;;;;;;;11.03;5.20;;;;;;;14.06;71.47;100773.17;2202038;80;21045;-73
2022/07/19 03:54:53;;;;;;;7.78;5.05;;;;;;;14.10;71.71;100778.48;2201034;80;21023;-74
2022/07/19 03:57:54;;;;;;;9.68;5.25;;;;;;;14.18;71.77;100774.95;2201463;80;21044;-73
2022/07/19 04:00:55;;;;;;;8.98;4.87;;;;;;;14.30;71.55;100779.73;2202635;80;21050;-73
2022/07/19 04:03:56;;;;;;;7.30;4.80;;;;;;;14.60;71.74;100771.90;2198498;80;20979;-73
2022/07/19 04:06:57;;;;;;;8.08;4.95;;;;;;;14.97;71.47;100773.79;2200574;80;21629;-72
2022/07/19 04:09:58;;;;;;;10.08;4.78;;;;;;;15.14;71.20;100781.16;2200576;80;21545;-73
2022/07/19 04:12:59;;;;;;;13.05;4.80;;;;;;;15.34;71.15;100760.61;2200734;80;21467;-73
2022/07/19 04:16:00;;;;;;;6.65;4.72;;;;;;;15.34;71.15;100760.61;2201922;80;20987;-72
2022/07/19 04:19:01;;;;;;;8.35;4.95;;;;;;;15.58;71.00;100776.92;2196047;80;21776;-72
2022/07/19 04:22:02;;;;;;;7.37;4.40;;;;;;;15.67;70.80;100783.33;2198442;80;21493;-73
2022/07/19 04:25:04;;;;;;;8.68;5.15;;;;;;;15.75;70.67;100781.11;2198964;80;21078;-72
2022/07/19 04:28:07;;;;;;;9.80;4.45;;;;;;;15.82;70.65;100783.86;2198881;80;20952;-74
2022/07/19 04:31:08;;;;;;;7.97;4.97;;;;;;;16.10;70.89;100776.82;2198711;80;21502;-72
2022/07/19 04:34:09;;;;;;;9.63;4.95;;;;;;;16.33;70.45;100781.21;2165723;82;20965;-73
2022/07/19 04:37:10;;;;;;;8.48;5.20;;;;;;;16.42;70.08;100782.78;2170532;82;21047;-73
2022/07/19 04:40:14;;;;;;;10.75;4.92;;;;;;;16.50;69.81;100784.49;2165662;82;21593;-73
2022/07/19 04:43:18;;;;;;;8.55;5.28;;;;;;;16.50;69.75;100784.01;2170497;81;21002;-74
2022/07/19 04:46:19;;;;;;;9.95;5.08;;;;;;;16.50;69.51;100788.03;2167666;81;20976;-73
2022/07/19 04:49:20;;;;;;;12.75;5.20;;;;;;;16.52;69.80;100785.14;2167962;81;20959;-73
2022/07/19 04:52:21;;;;;;;8.65;5.03;;;;;;;16.52;69.66;100787.30;2162405;81;21580;-74
2022/07/19 04:55:22;;;;;;;9.08;5.15;;;;;;;16.62;69.90;100791.55;2169952;81;21061;-73
2022/07/19 04:58:23;;;;;;;7.30;5.15;;;;;;;16.70;69.79;100794.11;2166731;81;21145;-74
2022/07/19 05:01:24;;;;;;;9.38;4.83;;;;;;;16.75;69.76;100793.00;2166387;81;21055;-73
2022/07/19 05:04:25;;;;;;;7.87;4.72;;;;;;;16.85;69.81;100796.24;2166564;81;20991;-74
2022/07/19 05:07:27;;;;;;;14.20;5.53;;;;;;;17.13;69.95;100792.78;2166002;81;21010;-73
2022/07/19 05:10:27;;;;;;;9.98;4.80;;;;;;;17.56;69.54;100793.52;2169973;81;21017;-75
2022/07/19 05:13:28;;;;;;;10.03;5.33;;;;;;;17.87;69.49;100794.98;2161500;81;21061;-75
2022/07/19 05:16:29;;;;;;;10.95;5.22;;;;;;;18.42;68.99;100793.16;2163686;81;20957;-74
2022/07/19 05:19:31;;;;;;;8.33;4.37;;;;;;;19.22;68.68;100788.75;2166057;82;21095;-74
2022/07/19 05:22:32;;;;;;;9.05;4.30;;;;;;;20.09;67.40;100782.71;2169641;81;20976;-74
2022/07/19 05:25:37;;;;;;;12.75;4.65;;;;;;;20.84;66.20;100780.80;2141391;82;21003;-74
2022/07/19 05:28:38;;;;;;;8.50;3.83;;;;;;;21.56;65.06;100781.23;2163651;82;21031;-72
2022/07/19 05:31:39;;;;;;;7.58;3.70;;;;;;;22.16;63.81;100777.88;2169520;81;20989;-73
2022/07/19 05:34:40;;;;;;;15.28;3.95;;;;;;;22.44;62.53;100783.24;2162850;81;21119;-73
2022/07/19 05:37:41;;;;;;;6.28;3.65;;;;;;;22.87;61.76;100779.52;2166087;82;20987;-76
2022/07/19 05:40:42;;;;;;;7.03;3.92;;;;;;;23.03;60.06;100778.34;2164620;82;21075;-74
2022/07/19 05:43:43;;;;;;;8.18;3.55;;;;;;;23.07;59.59;100777.88;2162043;81;21425;-73
2022/07/19 05:46:44;;;;;;;6.92;3.37;;;;;;;22.92;58.64;100773.70;2162610;81;21000;-73
2022/07/19 05:49:47;;;;;;;6.15;3.58;;;;;;;22.87;58.27;100783.05;2167822;81;21036;-73
2022/07/19 05:52:48;;;;;;;5.62;3.70;;;;;;;22.87;58.32;100778.17;2163555;81;21527;-74
2022/07/19 05:55:49;;;;;;;8.48;3.40;;;;;;;23.00;57.60;100775.27;2168153;81;20989;-73
2022/07/19 05:58:50;;;;;;;9.83;3.52;;;;;;;22.89;56.92;100770.12;2164772;80;21045;-74
2022/07/19 06:01:51;;;;;;;8.45;4.20;;;;;;;22.87;56.89;100775.46;2167585;80;22198;-73
2022/07/19 06:04:54;;;;;;;6.42;3.85;;;;;;;22.90;56.63;100773.64;2164295;80;21021;-77
2022/07/19 06:07:55;;;;;;;10.25;3.55;;;;;;;22.89;56.20;100772.82;2166565;81;21025;-76
2022/07/19 06:10:56;;;;;;;6.20;3.35;;;;;;;22.83;55.99;100777.28;2166570;81;21752;-74
2022/07/19 06:13:58;;;;;;;10.35;3.85;;;;;;;22.79;56.21;100767.96;2170386;81;21766;-75
2022/07/19 06:16:59;;;;;;;8.70;4.03;;;;;;;22.77;56.13;100773.30;2166091;81;21488;-74
2022/07/19 06:20:00;;;;;;;11.05;4.67;;;;;;;22.75;55.82;100772.20;2164576;81;21455;-74
2022/07/19 06:23:01;;;;;;;7.83;3.58;;;;;;;22.85;55.73;100777.56;2164963;81;21070;-76
2022/07/19 06:26:04;;;;;;;7.55;4.00;;;;;;;22.85;55.33;100766.21;2166750;81;21075;-75
2022/07/19 06:29:06;;;;;;;7.00;3.90;;;;;;;22.78;55.26;100766.33;2170070;81;21075;-74
2022/07/19 06:32:07;;;;;;;7.37;3.30;;;;;;;22.83;54.77;100770.52;2164517;81;21003;-74
2022/07/19 06:35:09;;;;;;;12.30;3.90;;;;;;;23.22;54.61;100769.58;2164319;81;21066;-77
2022/07/19 06:38:10;;;;;;;11.05;3.90;;;;;;;23.96;54.22;100765.00;2164565;82;21550;-75
2022/07/19 06:41:12;;;;;;;7.40;3.58;;;;;;;24.22;53.02;100761.47;2166445;81;21062;-74
2022/07/19 06:44:13;;;;;;;6.50;3.02;;;;;;;24.16;52.16;100761.36;2168437;80;21058;-74
2022/07/19 06:47:14;;;;;;;6.85;3.33;;;;;;;24.04;52.13;100753.78;2163712;81;21078;-75
2022/07/19 06:50:16;;;;;;;8.88;3.62;;;;;;;24.00;52.15;100753.98;2163734;81;21530;-77
2022/07/19 06:53:17;;;;;;;8.90;3.65;;;;;;;24.31;52.13;100749.98;2166555;81;21073;-75
2022/07/19 06:56:18;;;;;;;11.43;3.47;;;;;;;24.64;51.48;100746.24;2168289;81;22433;-75
2022/07/19 06:59:20;;;;;;;6.95;3.62;;;;;;;24.78;51.05;100748.41;2166537;81;22465;-75
2022/07/19 07:02:21;;;;;;;5.97;3.40;;;;;;;25.38;50.99;100751.55;2164703;81;20988;-76
2022/07/19 07:05:23;;;;;;;10.65;3.72;;;;;;;25.96;49.73;100755.61;2168705;81;21050;-76
2022/07/19 07:08:24;;;;;;;7.40;2.98;;;;;;;26.55;49.24;100755.73;2166579;81;21491;-76
2022/07/19 07:11:25;;;;;;;7.08;3.40;;;;;;;27.08;48.65;100756.44;2165326;81;20992;-75
2022/07/19 07:14:26;;;;;;;6.97;3.87;;;;;;;27.69;47.90;100756.85;2140588;81;21034;-75
2022/07/19 07:17:27;;;;;;;6.33;2.83;;;;;;;28.31;47.19;100753.83;2166959;80;20958;-75
2022/07/19 07:20:28;;;;;;;10.00;3.62;;;;;;;28.71;45.79;100751.72;2168507;81;21394;-74
2022/07/19 07:23:29;;;;;;;4.80;3.12;;;;;;;28.79;44.67;100745.72;2166737;81;21082;-77
2022/07/19 07:26:32;;;;;;;7.60;3.10;;;;;;;29.21;44.65;100753.38;2166561;82;21053;-77
2022/07/19 07:29:33;;;;;;;6.08;3.00;;;;;;;29.67;43.86;100754.64;2166652;81;21475;-75
2022/07/19 07:32:34;;;;;;;4.90;2.70;;;;;;;30.28;43.39;100743.44;2162714;81;22419;-74
2022/07/19 07:35:35;;;;;;;12.95;3.25;;;;;;;30.71;42.58;100743.67;2145218;82;21038;-76
2022/07/19 07:38:36;;;;;;;3.40;2.40;;;;;;;30.84;40.56;100745.54;2145824;82;21000;-76
2022/07/19 07:41:37;;;;;;;5.72;2.70;;;;;;;30.84;40.56;100745.54;2147429;82;21050;-76
2022/07/19 07:44:40;;;;;;;6.40;2.75;;;;;;;30.72;40.08;100754.91;2114986;82;21039;-77
2022/07/19 07:47:41;;;;;;;5.05;2.40;;;;;;;30.60;40.17;100751.70;2139900;82;21043;-76
2022/07/19 07:50:44;;;;;;;9.55;2.40;;;;;;;30.74;39.78;100747.77;2145412;82;21591;-77
2022/07/19 07:53:46;;;;;;;3.77;2.10;;;;;;;30.69;38.46;100758.75;2146229;82;21050;-76
2022/07/19 07:56:47;;;;;;;3.62;2.35;;;;;;;30.73;39.12;100748.87;2147034;82;20971;-77
2022/07/19 07:59:48;;;;;;;8.15;2.85;;;;;;;31.11;38.54;100755.41;2141753;82;21031;-76
2022/07/19 08:02:50;;;;;;;4.10;2.08;;;;;;;31.46;37.97;100749.34;2144735;82;21082;-77
2022/07/19 08:05:51;;;;;;;4.20;1.98;;;;;;;31.73;37.22;100747.91;2147377;82;20967;-76
2022/07/19 08:08:52;;;;;;;6.25;2.15;;;;;;;32.05;37.19;100752.20;2144079;82;21526;-77
2022/07/19 08:11:53;;;;;;;4.30;2.58;;;;;;;32.33;36.05;100746.88;2144449;82;20941;-77
2022/07/19 08:14:54;;;;;;;3.85;2.12;;;;;;;32.53;35.38;100743.84;2142030;82;21542;-77
2022/07/19 08:17:55;;;;;;;4.25;2.52;;;;;;;32.57;35.43;100748.97;2141297;82;21558;-76
2022/07/19 08:20:56;;;;;;;2.77;1.90;;;;;;;32.70;35.07;100747.41;2142900;82;21035;-76
2022/07/19 08:23:57;;;;;;;5.40;1.90;;;;;;;32.81;34.11;100743.94;2149128;82;21060;-76
2022/07/19 08:26:58;;;;;;;6.40;2.72;;;;;;;33.01;33.62;100749.10;2144300;82;20979;-77
2022/07/19 08:30:01;;;;;;;6.65;2.55;;;;;;;33.13;33.40;100743.67;2145377;82;21019;-77
2022/07/19 08:33:06;;;;;;;4.10;2.27;;;;;;;33.44;33.32;100741.16;2131796;81;21657;-78
2022/07/19 08:36:07;;;;;;;3.70;2.20;;;;;;;33.74;32.41;100738.38;2181605;80;20974;-77
2022/07/19 08:39:08;;;;;;;5.58;2.30;;;;;;;33.99;32.37;100737.59;2184483;81;21103;-77
2022/07/19 08:42:09;;;;;;;4.47;2.40;;;;;;;34.02;31.37;100736.97;2180338;81;21133;-77
2022/07/19 08:45:13;;;;;;;4.60;2.22;;;;;;;34.12;31.38;100735.37;2183059;81;21320;-77
2022/07/19 08:48:17;;;;;;;7.58;2.50;;;;;;;34.27;31.18;100736.95;2182408;81;21011;-77
2022/07/19 08:51:22;;;;;;;5.00;2.37;;;;;;;34.31;30.86;100729.14;2182884;81;21043;-77
2022/07/19 08:54:24;;;;;;;6.00;2.15;;;;;;;34.24;30.25;100730.69;2181033;81;21046;-77
2022/07/19 09:00:45;;;;;;;6.10;1.90;;;;;;;34.13;29.88;100719.94;2179750;80;21114;-77
2022/07/19 09:04:13;;;;;;;5.58;2.02;;;;;;;34.18;29.62;100723.68;2180935;80;21022;-77
2022/07/19 09:07:18;;;;;;;3.80;2.20;;;;;;;34.15;28.82;100720.98;2185807;80;20975;-77
2022/07/19 09:10:23;;;;;;;6.37;2.10;;;;;;;33.95;28.26;100717.30;2186923;80;21010;-77
2022/07/19 09:13:24;;;;;;;2.62;1.90;;;;;;;34.25;28.67;100718.00;2181566;80;20971;-77
2022/07/19 09:16:29;;;;;;;4.62;1.75;;;;;;;34.12;28.06;100713.34;2183425;80;21021;-77
2022/07/19 09:19:32;;;;;;;3.67;1.67;;;;;;;33.99;27.32;100715.00;2184115;80;20961;-77
2022/07/19 09:22:33;;;;;;;7.35;2.20;;;;;;;33.81;27.90;100709.87;2183439;81;20979;-77
2022/07/19 09:25:42;;;;;;;3.77;1.70;;;;;;;33.98;27.70;100711.17;2182366;81;21066;-77
2022/07/19 09:28:43;;;;;;;4.45;1.90;;;;;;;34.23;27.90;100702.34;2183034;81;21367;-77
2022/07/19 09:32:04;;;;;;;4.80;1.90;;;;;;;34.30;27.39;100697.80;2180211;80;21094;-77
2022/07/19 09:35:07;;;;;;;3.27;1.70;;;;;;;34.25;27.29;100700.11;2164594;81;21067;-77
2022/07/19 09:38:30;;;;;;;3.98;1.77;;;;;;;34.11;26.90;100704.84;2169242;81;21009;-77
2022/07/19 09:41:32;;;;;;;6.55;1.85;;;;;;;34.08;26.34;100702.72;2167414;82;21150;-77
2022/07/19 09:44:33;;;;;;;4.22;1.90;;;;;;;34.26;26.41;100691.27;2167611;82;21031;-78
2022/07/19 09:47:42;;;;;;;4.87;1.75;;;;;;;34.45;26.54;100691.09;2166725;81;21503;-77
2022/07/19 09:50:48;;;;;;;2.50;1.40;;;;;;;34.58;26.27;100691.63;2167922;81;21031;-77
2022/07/19 09:53:54;;;;;;;3.17;1.65;;;;;;;34.58;25.18;100689.69;2167321;81;21071;-77
2022/07/19 09:56:55;;;;;;;3.30;1.92;;;;;;;34.39;24.78;100686.84;2167298;81;21051;-77
2022/07/19 09:59:58;;;;;;;2.83;2.00;;;;;;;34.54;25.17;100685.08;2168865;81;21090;-78
2022/07/19 10:03:02;;;;;;;4.30;2.10;;;;;;;34.87;25.53;100682.06;2168799;81;21097;-79
2022/07/19 10:06:04;;;;;;;4.20;1.67;;;;;;;35.09;25.59;100679.28;2167304;81;20994;-79
2022/07/19 10:09:08;;;;;;;2.60;2.17;;;;;;;35.09;25.48;100678.47;2144913;81;21606;-79
2022/07/19 10:12:12;;;;;;;5.17;1.85;;;;;;;35.16;25.09;100678.80;2169463;81;21027;-79
2022/07/19 10:15:19;;;;;;;4.05;1.87;;;;;;;34.89;25.54;100673.73;2168011;81;21074;-79
2022/07/19 10:18:25;;;;;;;3.52;1.67;;;;;;;34.89;25.07;100672.35;2170688;81;21485;-80
2022/07/19 10:21:26;;;;;;;2.55;2.20;;;;;;;34.95;24.59;100670.27;2165161;81;20984;-79
2022/07/19 10:24:48;;;;;;;2.10;1.90;;;;;;;35.10;23.95;100670.44;2169098;81;20985;-79
2022/07/19 10:27:54;;;;;;;12.35;2.40;;;;;;;35.29;24.46;100672.38;2129675;81;21062;-80
2022/07/19 10:30:56;;;;;;;2.55;1.90;;;;;;;35.32;24.12;100664.83;2168013;81;21586;-80
2022/07/19 10:34:08;;;;;;;3.98;1.98;;;;;;;35.48;24.38;100663.83;2174413;80;21035;-79
2022/07/19 10:37:09;;;;;;;2.98;1.92;;;;;;;35.34;23.44;100666.71;2163372;81;21005;-80
2022/07/19 10:40:11;;;;;;;2.30;2.08;;;;;;;35.23;24.37;100664.81;2211692;79;21018;-79
2022/07/19 10:43:15;;;;;;;3.05;1.95;;;;;;;35.32;24.42;100659.89;2243859;78;20939;-80
2022/07/19 10:46:16;;;;;;;5.53;2.40;;;;;;;35.35;24.09;100653.16;2240099;78;20966;-80
2022/07/19 10:49:44;;;;;;;4.10;2.00;;;;;;;35.46;23.93;100653.67;2241474;78;21053;-80
2022/07/19 10:52:50;;;;;;;5.45;3.27;;;;;;;35.45;23.74;100652.03;2240118;78;21033;-80
2022/07/19 10:56:19;;;;;;;4.30;2.42;;;;;;;35.33;23.85;100648.52;2246160;78;21055;-79
2022/07/19 10:59:34;;;;;;;2.67;2.02;;;;;;;35.29;24.06;100651.69;2078784;84;21194;-81
2022/07/19 11:02:35;;;;;;;5.65;2.17;;;;;;;35.14;24.86;100642.45;2155052;82;21103;-80
2022/07/19 11:05:56;;;;;;;4.40;2.20;;;;;;;35.15;25.03;100643.53;2158526;81;21012;-81
2022/07/19 11:08:58;;;;;;;3.67;2.27;;;;;;;35.17;24.57;100642.66;2149166;82;20945;-80
2022/07/19 11:11:59;;;;;;;3.10;2.05;;;;;;;35.23;24.27;100633.09;2173576;81;21028;-80
2022/07/19 11:15:06;;;;;;;9.78;2.22;;;;;;;35.25;24.29;100633.59;2171939;81;21097;-80
2022/07/19 11:18:08;;;;;;;7.17;2.42;;;;;;;35.19;24.70;100630.72;2158287;81;20975;-81
2022/07/19 11:21:12;;;;;;;3.70;2.42;;;;;;;34.94;23.82;100626.70;2157615;81;20979;-80
2022/07/19 11:24:22;;;;;;;3.67;2.42;;;;;;;34.81;23.93;100629.83;2243019;78;21045;-80
2022/07/19 11:27:24;;;;;;;4.40;2.42;;;;;;;34.74;23.93;100626.70;2237314;78;21571;-81
2022/07/19 11:30:30;;;;;;;4.12;2.05;;;;;;;34.86;23.75;100621.99;2242357;78;21048;-80
2022/07/19 11:33:31;;;;;;;5.78;2.22;;;;;;;34.93;24.37;100620.95;2244532;78;21072;-79
2022/07/19 11:36:32;;;;;;;6.70;2.33;;;;;;;34.71;24.02;100624.58;2238844;78;20962;-79
2022/07/19 11:39:50;;;;;;;6.83;2.17;;;;;;;34.58;23.93;100628.27;2242281;78;21037;-80
2022/07/19 11:42:52;;;;;;;4.58;2.10;;;;;;;34.52;24.24;100615.16;2239829;78;21000;-81
2022/07/19 11:45:53;;;;;;;6.83;2.40;;;;;;;34.62;24.09;100615.47;2240677;78;21045;-80
2022/07/19 11:49:00;;;;;;;8.13;2.55;;;;;;;34.57;24.35;100621.11;2240150;78;21068;-80
2022/07/19 11:52:01;;;;;;;4.28;2.37;;;;;;;34.44;24.83;100614.54;2243302;78;20955;-80
2022/07/19 11:55:06;;;;;;;6.00;2.10;;;;;;;34.53;24.65;100611.83;2242652;78;21023;-80
2022/07/19 11:58:10;;;;;;;5.55;2.33;;;;;;;34.44;23.95;100611.78;2240055;78;21032;-82
2022/07/19 12:01:11;;;;;;;2.50;1.95;;;;;;;34.53;24.64;100608.50;2245897;77;21005;-83
2022/07/19 12:04:13;;;;;;;5.15;2.30;;;;;;;34.62;24.59;100607.77;2238016;78;21072;-81
2022/07/19 12:07:18;;;;;;;4.12;2.40;;;;;;;34.45;24.23;100609.84;2240205;78;21029;-83
2022/07/19 12:10:42;;;;;;;4.53;2.00;;;;;;;34.31;24.73;100603.03;2241480;78;20955;-81
2022/07/19 12:13:43;;;;;;;3.50;2.20;;;;;;;34.25;24.36;100600.97;2242703;78;21076;-80
2022/07/19 12:16:46;;;;;;;3.67;2.40;;;;;;;34.07;23.98;100606.09;2246996;78;20993;-81
2022/07/19 12:19:54;;;;;;;3.75;1.95;;;;;;;34.07;24.34;100599.21;2245697;78;21574;-80
2022/07/19 12:22:55;;;;;;;2.73;1.80;;;;;;;34.04;23.86;100602.05;2238726;78;21634;-83
2022/07/19 12:26:04;;;;;;;2.67;1.87;;;;;;;33.92;23.91;100599.80;2233323;78;20954;-83
2022/07/19 12:29:33;;;;;;;3.45;1.82;;;;;;;33.96;23.85;100600.02;2243116;78;21029;-80
2022/07/19 12:32:37;;;;;;;3.62;2.15;;;;;;;33.90;23.95;100595.73;2240769;78;21076;-83
2022/07/19 12:35:45;;;;;;;4.28;2.20;;;;;;;33.86;23.97;100588.67;2246253;78;21090;-83
2022/07/19 12:38:49;;;;;;;5.12;2.10;;;;;;;33.88;23.27;100590.56;2242249;78;21080;-83
2022/07/19 12:42:03;;;;;;;4.67;2.15;;;;;;;33.67;23.59;100575.64;2241950;78;21400;-83
2022/07/19 12:45:07;;;;;;;2.80;1.90;;;;;;;33.68;24.74;100577.29;2246581;78;21013;-83
2022/07/19 12:48:11;;;;;;;5.53;2.10;;;;;;;33.85;24.60;100578.80;2241337;78;21120;-83
2022/07/19 12:51:12;;;;;;;5.03;1.90;;;;;;;33.91;24.40;100574.80;2249237;78;20979;-83
2022/07/19 12:54:16;;;;;;;4.05;2.00;;;;;;;33.91;24.17;100573.42;2239992;78;21089;-83
2022/07/19 12:57:17;;;;;;;3.20;2.00;;;;;;;33.85;24.04;100569.73;2247133;78;21536;-83
2022/07/19 13:00:21;;;;;;;5.05;2.25;;;;;;;33.75;23.87;100565.27;2245545;78;21084;-83
2022/07/19 13:03:29;;;;;;;3.40;2.00;;;;;;;33.62;24.41;100555.96;2248952;78;22235;-83
2022/07/19 13:06:28;;;;;;;4.33;2.47;;;;;;;33.66;24.86;100556.15;2243374;78;21041;-83
2022/07/19 13:09:29;;;;;;;3.35;2.02;;;;;;;33.69;24.61;100556.89;2245801;78;21710;-83
2022/07/19 13:12:31;;;;;;;3.58;2.10;;;;;;;33.84;24.29;100559.84;2240086;78;21048;-83
2022/07/19 13:15:33;;;;;;;4.62;2.12;;;;;;;33.92;24.60;100547.52;2243538;78;21131;-83
2022/07/19 13:18:34;;;;;;;2.37;1.85;;;;;;;33.86;23.83;100550.14;2243077;78;20994;-83
2022/07/19 13:21:36;;;;;;;3.50;2.10;;;;;;;33.84;23.57;100551.58;2213850;78;21025;-84
2022/07/19 13:24:37;;;;;;;4.05;2.00;;;;;;;33.81;23.57;100540.63;2247850;78;21004;-84
2022/07/19 13:27:38;;;;;;;7.62;2.02;;;;;;;33.71;23.23;100542.27;2244246;78;21508;-85
2022/07/19 13:30:39;;;;;;;4.30;2.00;;;;;;;33.70;24.10;100555.76;2242730;78;21004;-85
2022/07/19 13:33:40;;;;;;;10.30;2.30;;;;;;;33.68;24.15;100548.41;2241179;78;21531;-84
2022/07/19 13:36:42;;;;;;;4.30;1.57;;;;;;;33.75;24.51;100541.08;2243383;78;20982;-83
2022/07/19 13:39:43;;;;;;;12.70;2.10;;;;;;;33.83;24.11;100539.77;2243660;78;21048;-81
2022/07/19 13:42:49;;;;;;;4.15;2.22;;;;;;;33.77;24.29;100541.02;2244818;78;20982;-83
2022/07/19 13:45:48;;;;;;;6.10;2.20;;;;;;;33.72;24.50;100537.58;2240892;78;21540;-83
2022/07/19 13:48:51;;;;;;;14.35;2.62;;;;;;;33.78;24.37;100536.33;2240807;78;21432;-83
2022/07/19 13:51:54;;;;;;;2.45;1.95;;;;;;;33.74;24.17;100529.27;2246884;78;21519;-79
2022/07/19 13:54:55;;;;;;;6.53;2.55;;;;;;;33.69;23.96;100532.94;2245272;78;21057;-79
2022/07/19 13:57:57;;;;;;;4.22;2.05;;;;;;;33.79;24.48;100526.94;2244613;78;21006;-79
2022/07/19 14:00:58;;;;;;;7.87;2.10;;;;;;;33.90;24.18;100519.52;2243939;78;21339;-84
2022/07/19 14:03:59;;;;;;;3.77;2.10;;;;;;;33.87;24.67;100520.68;2241565;78;21088;-83
2022/07/19 14:07:01;;;;;;;2.27;2.02;;;;;;;33.78;23.80;100517.88;2240823;78;20954;-83
2022/07/19 14:10:04;;;;;;;5.65;1.90;;;;;;;33.83;25.09;100511.44;2241094;78;21052;-80
2022/07/19 14:13:06;;;;;;;2.95;2.05;;;;;;;33.77;24.19;100512.70;2214827;79;20982;-87
2022/07/19 14:16:10;;;;;;;3.58;1.98;;;;;;;33.65;23.96;100511.32;2215153;78;21441;-88